Chapel Arm, Canada
Current Conditions -  °F | °C
As of 1:00 AM on Sunday 25 Jan 2015 (Local Time) from CYYT Reporting Station
Overcast Overcast  
Wind Chill: 22°   Ceiling: 800
Heat Index: 34°   Visibility: 15mi
Dew Point: 32°   Wind: 22mph
Humidity: 93%   Direction: 160°SSE
Pressure: 29.82"   Gusts: 29mph
Location:  47.52°N, 53.67°W
Report Text: CYYT 250400Z 16019G25KT 15SM OVC008 01/M00 A2982 RMK SF8 SLP104
Loading
Personal Weather Stations






























Interactive Weather Map New forecast layout! Learn more

10-Day Weather Forecast

Advertisements
Track Severe Weather on mobile